Time,TemperatureF,DewpointF,PressureIn,WindDirection,WindDirectionDegrees,WindSpeedMPH,WindSpeedGustMPH,Humidity,HourlyPrecipIn,Conditions,Clouds,dailyrainin,SoftwareType,DateUTC
2013-01-07 00:10:00,39.4,39.0,30.22,South,181,0.0,0.0,98,0.01,,,0.01,weatherlink.com 1.10,2013-01-07 08:10:00,
2013-01-07 00:25:00,38.3,38.0,30.21,South,181,0.0,0.0,97,0.01,,,0.01,weatherlink.com 1.10,2013-01-07 08:25:00,
2013-01-07 00:40:00,38.6,38.0,30.21,South,181,0.0,0.0,99,0.00,,,0.01,weatherlink.com 1.10,2013-01-07 08:40:00,
2013-01-07 00:55:00,39.3,39.0,30.21,South,181,0.0,0.0,99,0.00,,,0.01,weatherlink.com 1.10,2013-01-07 08:55:00,
2013-01-07 01:10:00,37.8,37.0,30.21,South,181,0.0,0.0,98,0.00,,,0.01,weatherlink.com 1.10,2013-01-07 09:10:00,
2013-01-07 01:25:00,37.4,37.0,30.20,SSW,197,1.0,4.0,98,0.00,,,0.01,weatherlink.com 1.10,2013-01-07 09:25:00,
2013-01-07 01:40:00,37.6,37.0,30.21,SSW,197,1.0,1.0,99,0.00,,,0.01,weatherlink.com 1.10,2013-01-07 09:40:00,
2013-01-07 01:55:00,38.1,38.0,30.22,South,182,1.0,2.0,99,0.00,,,0.01,weatherlink.com 1.10,2013-01-07 09:55:00,
2013-01-07 02:10:00,37.3,37.0,30.23,SSW,205,1.0,2.0,99,0.00,,,0.01,weatherlink.com 1.10,2013-01-07 10:10:00,
2013-01-07 02:25:00,36.7,37.0,30.24,North,1,0.0,3.0,99,0.00,,,0.01,weatherlink.com 1.10,2013-01-07 10:25:00,
2013-01-07 02:40:00,37.2,37.0,30.24,NNW,347,1.0,2.0,99,0.00,,,0.01,weatherlink.com 1.10,2013-01-07 10:40:00,
2013-01-07 02:55:00,36.9,37.0,30.24,North,356,0.0,0.0,99,0.00,,,0.01,weatherlink.com 1.10,2013-01-07 10:55:00,
2013-01-07 03:10:00,38.2,38.0,30.25,South,183,1.0,4.0,100,0.00,,,0.01,weatherlink.com 1.10,2013-01-07 11:10:00,
2013-01-07 03:25:00,38.0,38.0,30.24,WSW,256,2.0,3.0,99,0.00,,,0.01,weatherlink.com 1.10,2013-01-07 11:25:00,
2013-01-07 03:40:00,37.5,37.0,30.23,NW,325,1.0,3.0,99,0.00,,,0.01,weatherlink.com 1.10,2013-01-07 11:40:00,
2013-01-07 03:55:00,38.1,38.0,30.23,West,263,0.0,2.0,100,0.00,,,0.01,weatherlink.com 1.10,2013-01-07 11:55:00,
2013-01-07 04:10:00,37.3,37.0,30.24,NNE,26,0.0,0.0,99,0.00,,,0.01,weatherlink.com 1.10,2013-01-07 12:10:00,
2013-01-07 04:25:00,36.7,37.0,30.24,North,359,1.0,2.0,99,0.00,,,0.01,weatherlink.com 1.10,2013-01-07 12:25:00,
2013-01-07 04:40:00,36.1,36.0,30.22,North,349,1.0,1.0,99,0.00,,,0.00,weatherlink.com 1.10,2013-01-07 12:40:00,
2013-01-07 04:55:00,37.2,37.0,30.22,NNW,345,0.0,2.0,100,0.00,,,0.00,weatherlink.com 1.10,2013-01-07 12:55:00,
2013-01-07 05:10:00,36.8,37.0,30.22,North,6,0.0,0.0,99,0.00,,,0.00,weatherlink.com 1.10,2013-01-07 13:10:00,
2013-01-07 05:25:00,36.4,36.0,30.22,NNW,340,0.0,0.0,99,0.00,,,0.00,weatherlink.com 1.10,2013-01-07 13:25:00,
2013-01-07 05:40:00,36.6,36.0,30.23,NNW,335,0.0,2.0,99,0.00,,,0.00,weatherlink.com 1.10,2013-01-07 13:40:00,
2013-01-07 05:55:00,36.3,36.0,30.23,NNW,340,1.0,2.0,99,0.00,,,0.00,weatherlink.com 1.10,2013-01-07 13:55:00,
2013-01-07 06:10:00,36.2,36.0,30.23,NNW,335,0.0,2.0,99,0.00,,,0.00,weatherlink.com 1.10,2013-01-07 14:10:00,
2013-01-07 06:25:00,36.6,36.0,30.23,North,10,1.0,2.0,99,0.00,,,0.00,weatherlink.com 1.10,2013-01-07 14:25:00,
2013-01-07 06:40:00,37.1,37.0,30.24,NNW,330,1.0,2.0,100,0.00,,,0.00,weatherlink.com 1.10,2013-01-07 14:40:00,
2013-01-07 06:55:00,38.3,38.0,30.24,NNW,336,0.0,2.0,100,0.00,,,0.00,weatherlink.com 1.10,2013-01-07 14:55:00,
2013-01-07 07:11:00,36.8,37.0,30.25,NNE,21,0.0,0.0,99,0.00,,,0.00,weatherlink.com 1.10,2013-01-07 15:11:00,
2013-01-07 07:26:00,36.5,36.0,30.24,North,352,0.0,0.0,99,0.00,,,0.00,weatherlink.com 1.10,2013-01-07 15:26:00,
2013-01-07 07:41:00,37.2,37.0,30.24,SW,222,0.0,0.0,100,0.00,,,0.00,weatherlink.com 1.10,2013-01-07 15:41:00,
2013-01-07 07:56:00,39.1,39.0,30.23,South,173,0.0,0.0,100,0.00,,,0.00,weatherlink.com 1.10,2013-01-07 15:56:00,
2013-01-07 08:11:00,39.9,40.0,30.24,SE,136,0.0,5.0,100,0.00,,,0.00,weatherlink.com 1.10,2013-01-07 16:11:00,
2013-01-07 08:26:00,39.6,40.0,30.26,North,353,1.0,1.0,100,0.00,,,0.00,weatherlink.com 1.10,2013-01-07 16:26:00,
2013-01-07 08:41:00,40.4,40.0,30.27,NE,46,0.0,0.0,100,0.00,,,0.00,weatherlink.com 1.10,2013-01-07 16:41:00,
2013-01-07 08:56:00,41.6,42.0,30.27,South,183,4.0,6.0,100,0.00,,,0.00,weatherlink.com 1.10,2013-01-07 16:56:00,
2013-01-07 09:11:00,43.1,43.0,30.26,South,183,4.0,4.0,100,0.00,,,0.00,weatherlink.com 1.10,2013-01-07 17:11:00,
2013-01-07 11:37:00,54.2,50.0,30.26,South,173,4.0,10.0,84,0.00,,,0.00,weatherlink.com 1.10,2013-01-07 19:37:00,
2013-01-07 11:56:00,55.4,51.0,30.25,South,173,1.0,9.0,84,0.00,,,0.00,weatherlink.com 1.10,2013-01-07 19:56:00,
2013-01-07 12:11:00,56.1,51.0,30.24,South,173,4.0,9.0,84,0.00,,,0.00,weatherlink.com 1.10,2013-01-07 20:11:00,
2013-01-07 12:26:00,55.8,52.0,30.23,NW,315,7.0,9.0,86,0.00,,,0.00,weatherlink.com 1.10,2013-01-07 20:26:00,
2013-01-07 12:41:00,56.1,52.0,30.23,NW,318,3.0,10.0,87,0.00,,,0.00,weatherlink.com 1.10,2013-01-07 20:41:00,
2013-01-07 12:56:00,56.1,53.0,30.21,NW,316,2.0,10.0,88,0.00,,,0.00,weatherlink.com 1.10,2013-01-07 20:56:00,
2013-01-07 13:12:00,56.3,53.0,30.22,NNW,335,7.0,12.0,89,0.00,,,0.00,weatherlink.com 1.10,2013-01-07 21:12:00,
2013-01-07 13:27:00,56.5,53.0,30.21,NW,310,5.0,9.0,88,0.00,,,0.00,weatherlink.com 1.10,2013-01-07 21:27:00,
2013-01-07 13:42:00,55.8,52.0,30.21,NW,305,8.0,13.0,88,0.00,,,0.00,weatherlink.com 1.10,2013-01-07 21:42:00,
2013-01-07 13:57:00,55.8,53.0,30.20,NW,310,5.0,9.0,89,0.00,,,0.00,weatherlink.com 1.10,2013-01-07 21:57:00,
2013-01-07 14:12:00,55.9,53.0,30.20,South,174,5.0,10.0,90,0.00,,,0.00,weatherlink.com 1.10,2013-01-07 22:12:00,
2013-01-07 14:27:00,56.1,53.0,30.19,South,174,4.0,10.0,89,0.00,,,0.00,weatherlink.com 1.10,2013-01-07 22:27:00,
2013-01-07 14:42:00,56.1,53.0,30.18,South,174,6.0,12.0,88,0.00,,,0.00,weatherlink.com 1.10,2013-01-07 22:42:00,
2013-01-07 14:57:00,55.7,53.0,30.18,South,174,6.0,8.0,90,0.00,,,0.00,weatherlink.com 1.10,2013-01-07 22:57:00,
2013-01-07 15:12:00,55.2,52.0,30.18,South,174,6.0,12.0,90,0.00,,,0.00,weatherlink.com 1.10,2013-01-07 23:12:00,
2013-01-07 15:27:00,55.3,53.0,30.18,South,174,7.0,10.0,91,0.00,,,0.00,weatherlink.com 1.10,2013-01-07 23:27:00,
2013-01-07 15:42:00,54.8,53.0,30.18,South,174,3.0,9.0,92,0.00,,,0.00,weatherlink.com 1.10,2013-01-07 23:42:00,
2013-01-07 15:57:00,54.6,52.0,30.19,South,174,3.0,9.0,92,0.00,,,0.00,weatherlink.com 1.10,2013-01-07 23:57:00,
2013-01-07 16:12:00,54.2,52.0,30.19,South,174,5.0,7.0,93,0.00,,,0.00,weatherlink.com 1.10,2013-01-08 00:12:00,
2013-01-07 16:27:00,53.8,52.0,30.19,South,174,4.0,8.0,93,0.00,,,0.00,weatherlink.com 1.10,2013-01-08 00:27:00,
2013-01-07 16:42:00,53.6,52.0,30.19,South,174,1.0,10.0,94,0.00,,,0.00,weatherlink.com 1.10,2013-01-08 00:42:00,
2013-01-07 16:57:00,53.2,52.0,30.19,South,174,4.0,7.0,95,0.00,,,0.00,weatherlink.com 1.10,2013-01-08 00:57:00,
2013-01-07 17:12:00,52.9,52.0,30.18,South,174,4.0,6.0,96,0.00,,,0.00,weatherlink.com 1.10,2013-01-08 01:12:00,
2013-01-07 17:27:00,52.6,52.0,30.18,South,174,5.0,6.0,96,0.00,,,0.00,weatherlink.com 1.10,2013-01-08 01:27:00,
2013-01-07 17:42:00,52.5,51.0,30.18,South,174,2.0,6.0,96,0.00,,,0.00,weatherlink.com 1.10,2013-01-08 01:42:00,
2013-01-07 17:57:00,52.3,51.0,30.18,South,174,1.0,3.0,96,0.00,,,0.00,weatherlink.com 1.10,2013-01-08 01:57:00,
2013-01-07 18:12:00,52.2,51.0,30.18,South,174,2.0,4.0,97,0.00,,,0.00,weatherlink.com 1.10,2013-01-08 02:12:00,
2013-01-07 18:27:00,52.1,51.0,30.18,South,174,1.0,4.0,97,0.00,,,0.00,weatherlink.com 1.10,2013-01-08 02:27:00,
2013-01-07 18:42:00,52.0,51.0,30.18,South,174,1.0,2.0,97,0.00,,,0.00,weatherlink.com 1.10,2013-01-08 02:42:00,
2013-01-07 18:57:00,51.5,51.0,30.18,South,174,2.0,3.0,97,0.00,,,0.00,weatherlink.com 1.10,2013-01-08 02:57:00,
2013-01-07 19:12:00,51.7,51.0,30.18,South,174,1.0,4.0,98,0.00,,,0.00,weatherlink.com 1.10,2013-01-08 03:12:00,
2013-01-07 19:27:00,51.4,51.0,30.18,South,174,2.0,3.0,97,0.00,,,0.00,weatherlink.com 1.10,2013-01-08 03:27:00,
2013-01-07 19:42:00,50.6,50.0,30.18,South,174,0.0,2.0,97,0.00,,,0.00,weatherlink.com 1.10,2013-01-08 03:42:00,
2013-01-07 19:57:00,50.1,50.0,30.18,South,174,2.0,2.0,98,0.00,,,0.00,weatherlink.com 1.10,2013-01-08 03:57:00,
2013-01-07 20:12:00,50.2,49.0,30.18,South,174,2.0,3.0,97,0.00,,,0.00,weatherlink.com 1.10,2013-01-08 04:12:00,
2013-01-07 20:27:00,49.2,49.0,30.18,South,174,2.0,2.0,98,0.00,,,0.00,weatherlink.com 1.10,2013-01-08 04:27:00,
2013-01-07 20:42:00,48.4,48.0,30.19,South,174,1.0,3.0,98,0.00,,,0.00,weatherlink.com 1.10,2013-01-08 04:42:00,
2013-01-07 20:57:00,47.9,47.0,30.19,South,174,0.0,1.0,98,0.00,,,0.00,weatherlink.com 1.10,2013-01-08 04:57:00,
2013-01-07 21:12:00,47.3,47.0,30.19,South,174,0.0,0.0,98,0.00,,,0.00,weatherlink.com 1.10,2013-01-08 05:12:00,
2013-01-07 21:27:00,46.8,46.0,30.19,South,174,0.0,0.0,98,0.00,,,0.00,weatherlink.com 1.10,2013-01-08 05:27:00,
2013-01-07 21:42:00,46.1,46.0,30.19,South,174,0.0,0.0,98,0.00,,,0.00,weatherlink.com 1.10,2013-01-08 05:42:00,
2013-01-07 21:57:00,45.9,46.0,30.20,South,173,0.0,0.0,99,0.00,,,0.00,weatherlink.com 1.10,2013-01-08 05:57:00,
2013-01-07 22:12:00,45.0,45.0,30.19,South,174,0.0,0.0,99,0.00,,,0.00,weatherlink.com 1.10,2013-01-08 06:12:00,
2013-01-07 22:27:00,44.4,44.0,30.20,South,174,0.0,0.0,98,0.00,,,0.00,weatherlink.com 1.10,2013-01-08 06:27:00,
2013-01-07 22:42:00,44.1,44.0,30.20,South,174,0.0,0.0,99,0.00,,,0.00,weatherlink.com 1.10,2013-01-08 06:42:00,
2013-01-07 22:57:00,44.1,44.0,30.20,South,174,0.0,0.0,99,0.00,,,0.00,weatherlink.com 1.10,2013-01-08 06:57:00,
2013-01-07 23:12:00,44.2,44.0,30.20,South,174,0.0,0.0,99,0.00,,,0.00,weatherlink.com 1.10,2013-01-08 07:12:00,
2013-01-07 23:27:00,43.8,44.0,30.20,South,174,0.0,0.0,99,0.00,,,0.00,weatherlink.com 1.10,2013-01-08 07:27:00,
2013-01-07 23:42:00,43.4,43.0,30.20,South,174,0.0,0.0,99,0.00,,,0.00,weatherlink.com 1.10,2013-01-08 07:42:00,
2013-01-07 23:57:00,42.2,42.0,30.20,South,174,0.0,0.0,98,0.01,,,0.01,weatherlink.com 1.10,2013-01-08 07:57:00,